Time;durP1;ratioP1;P1;durP2;ratioP2;P2;SDS_P1;SDS_P2;PMS_P1;PMS_P2;Temp;Humidity;BMP_temperature;BMP_pressure;BME280_temperature;BME280_humidity;BME280_pressure;Samples;Min_cycle;Max_cycle;Signal;HPM_P1;HPM_P2
2021/07/12 00:01:26;;;;;;;;;0.00;0.00;;;;;-144.08;100.00;62200.94;5083826;28;45374;-55
2021/07/12 00:03:51;;;;;;;;;0.00;0.00;;;;;-144.08;100.00;62200.94;5083831;28;45287;-56
2021/07/12 00:06:16;;;;;;;;;0.00;0.00;;;;;-144.08;100.00;62200.94;5083976;28;45314;-56
2021/07/12 00:08:42;;;;;;;;;0.00;0.00;;;;;-144.08;100.00;62200.94;5083636;28;46167;-55
2021/07/12 00:11:08;;;;;;;;;0.00;0.00;;;;;-144.08;100.00;62200.94;5065476;28;45834;-55
2021/07/12 00:13:34;;;;;;;;;0.00;0.00;;;;;-144.08;100.00;62200.94;5083782;28;45241;-54
2021/07/12 00:15:59;;;;;;;;;0.00;0.00;;;;;-144.08;100.00;62200.94;5083729;28;45479;-57
2021/07/12 00:18:25;;;;;;;;;0.00;0.00;;;;;-144.08;100.00;62200.94;5083541;28;46388;-56
2021/07/12 00:20:50;;;;;;;;;0.00;0.00;;;;;-144.08;100.00;62200.94;5083689;28;45355;-57
2021/07/12 00:23:15;;;;;;;;;0.00;0.00;;;;;-144.08;100.00;62200.94;5083993;28;45743;-56
2021/07/12 00:25:41;;;;;;;;;0.00;0.00;;;;;-144.08;100.00;62200.94;5083908;28;45290;-56
2021/07/12 00:28:06;;;;;;;;;0.00;0.00;;;;;-144.08;100.00;62200.94;5083542;28;45339;-57
2021/07/12 00:30:32;;;;;;;;;0.00;0.00;;;;;-144.08;100.00;62200.94;5082651;28;45375;-56
2021/07/12 00:32:58;;;;;;;;;0.00;0.00;;;;;-144.08;100.00;62200.94;5083480;28;45321;-57
2021/07/12 00:35:25;;;;;;;;;0.00;0.00;;;;;-144.08;100.00;62200.94;5083566;28;45337;-56
2021/07/12 00:37:50;;;;;;;;;0.00;0.00;;;;;-144.08;100.00;62200.94;5083229;28;45620;-56
2021/07/12 00:40:17;;;;;;;;;0.00;0.00;;;;;-144.08;100.00;62200.94;5083454;28;45508;-56
2021/07/12 00:42:44;;;;;;;;;0.00;0.00;;;;;-144.08;100.00;62200.94;5064411;28;45296;-57
2021/07/12 00:45:20;;;;;;;;;0.00;0.00;;;;;-144.08;100.00;62200.94;5082795;28;45223;-56
2021/07/12 00:47:47;;;;;;;;;0.00;0.00;;;;;-144.08;100.00;62200.94;5083215;28;46346;-56
2021/07/12 00:50:13;;;;;;;;;0.00;0.00;;;;;-144.08;100.00;62200.94;5082958;28;45543;-56
2021/07/12 00:52:40;;;;;;;;;0.00;0.00;;;;;-144.08;100.00;62200.94;5083553;28;45346;-57
2021/07/12 00:55:23;;;;;;;;;0.00;0.00;;;;;-144.08;100.00;62200.94;5083014;28;45617;-56
2021/07/12 00:57:49;;;;;;;;;0.00;0.00;;;;;-144.08;100.00;62200.94;5083142;28;45583;-56
2021/07/12 01:00:16;;;;;;;;;0.00;0.00;;;;;-144.08;100.00;62200.94;5082756;28;45330;-57
2021/07/12 01:02:42;;;;;;;;;0.00;0.00;;;;;-144.08;100.00;62200.94;5083080;28;45362;-57
2021/07/12 01:05:10;;;;;;;;;0.00;0.00;;;;;-144.08;100.00;62200.94;5082965;28;45186;-57
2021/07/12 01:07:36;;;;;;;;;0.00;0.00;;;;;-144.08;100.00;62200.94;5082586;28;46337;-57
2021/07/12 01:10:03;;;;;;;;;0.00;0.00;;;;;-144.08;100.00;62200.94;5082749;28;45269;-57
2021/07/12 01:12:46;;;;;;;;;0.00;0.00;;;;;-144.08;100.00;62200.94;5082976;28;45697;-56
2021/07/12 01:15:15;;;;;;;;;0.00;0.00;;;;;-144.08;100.00;62200.94;5082564;28;45553;-56
2021/07/12 01:18:04;;;;;;;;;0.50;0.50;;;;;-144.08;100.00;62200.94;5082678;28;46624;-56
2021/07/12 01:20:44;;;;;;;;;0.00;0.00;;;;;-144.08;100.00;62200.94;5082812;28;45262;-56
2021/07/12 01:23:35;;;;;;;;;0.00;0.00;;;;;-144.08;100.00;62200.94;5082770;28;45348;-57
2021/07/12 01:26:28;;;;;;;;;0.00;0.00;;;;;-144.08;100.00;62200.94;5082774;28;45216;-57
2021/07/12 01:29:06;;;;;;;;;0.00;0.00;;;;;-144.08;100.00;62200.94;5082412;28;45441;-55
2021/07/12 01:31:44;;;;;;;;;0.00;0.00;;;;;-144.08;100.00;62200.94;5069881;28;45343;-57
2021/07/12 01:34:13;;;;;;;;;0.00;0.00;;;;;-144.08;100.00;62200.94;5082508;28;45298;-56
2021/07/12 01:36:47;;;;;;;;;0.00;0.00;;;;;-144.08;100.00;62200.94;5082574;28;45446;-57
2021/07/12 01:39:15;;;;;;;;;0.00;0.00;;;;;-144.08;100.00;62200.94;5064120;28;46484;-57
2021/07/12 01:42:01;;;;;;;;;0.00;0.00;;;;;-144.08;100.00;62200.94;5082553;28;45325;-57
2021/07/12 01:44:35;;;;;;;;;0.00;0.00;;;;;-144.08;100.00;62200.94;5082514;28;45378;-56
2021/07/12 01:47:07;;;;;;;;;0.00;0.00;;;;;-144.08;100.00;62200.94;5082277;28;45164;-56
2021/07/12 01:49:51;;;;;;;;;0.00;0.00;;;;;-144.08;100.00;62200.94;5082369;28;46859;-56
2021/07/12 01:52:30;;;;;;;;;0.00;0.00;;;;;-144.08;100.00;62200.94;5082231;28;45373;-54
2021/07/12 01:55:03;;;;;;;;;0.00;0.00;;;;;-144.08;100.00;62200.94;5081901;28;45408;-56
2021/07/12 01:58:07;;;;;;;;;0.00;0.00;;;;;-144.08;100.00;62200.94;5082572;28;45231;-57
2021/07/12 02:00:34;;;;;;;;;0.00;0.00;;;;;-144.08;100.00;62200.94;5078573;28;45373;-57
2021/07/12 02:03:01;;;;;;;;;0.00;0.00;;;;;-144.08;100.00;62200.94;5082008;28;45286;-57
2021/07/12 02:05:30;;;;;;;;;0.00;0.00;;;;;-144.08;100.00;62200.94;5082061;28;45152;-57
2021/07/12 02:08:00;;;;;;;;;0.00;0.00;;;;;-144.08;100.00;62200.94;5082142;28;45616;-56
2021/07/12 02:10:28;;;;;;;;;0.00;0.00;;;;;-144.08;100.00;62200.94;5081980;28;45295;-57
2021/07/12 02:12:55;;;;;;;;;0.00;0.00;;;;;-144.08;100.00;62200.94;5081737;28;45334;-56
2021/07/12 02:15:22;;;;;;;;;0.00;0.00;;;;;-144.08;100.00;62200.94;5081605;28;45499;-56
2021/07/12 02:17:50;;;;;;;;;0.00;0.00;;;;;-144.08;100.00;62200.94;5082002;28;45359;-57
2021/07/12 02:20:19;;;;;;;;;0.00;0.00;;;;;-144.08;100.00;62200.94;5081928;28;45498;-57
2021/07/12 02:22:48;;;;;;;;;0.00;0.00;;;;;-144.08;100.00;62200.94;5081679;28;45313;-56
2021/07/12 02:25:15;;;;;;;;;0.00;0.00;;;;;-144.08;100.00;62200.94;5081648;28;45228;-57
2021/07/12 02:27:43;;;;;;;;;0.00;0.00;;;;;-144.08;100.00;62200.94;5082003;28;45243;-56
2021/07/12 02:30:09;;;;;;;;;0.00;0.00;;;;;-144.08;100.00;62200.94;5081349;28;46522;-57
2021/07/12 02:32:36;;;;;;;;;0.00;0.00;;;;;-144.08;100.00;62200.94;5081452;28;45291;-56
2021/07/12 02:35:07;;;;;;;;;0.00;0.00;;;;;-144.08;100.00;62200.94;5081684;28;45293;-58
2021/07/12 02:37:41;;;;;;;;;0.00;0.00;;;;;-144.08;100.00;62200.94;5081524;28;45409;-56
2021/07/12 02:40:10;;;;;;;;;0.00;0.00;;;;;-144.08;100.00;62200.94;5081549;28;46335;-57
2021/07/12 02:42:41;;;;;;;;;0.00;0.00;;;;;-144.08;100.00;62200.94;5081333;28;45342;-56
2021/07/12 02:45:08;;;;;;;;;0.00;0.00;;;;;-144.08;100.00;62200.94;5063128;28;45374;-56
2021/07/12 02:47:39;;;;;;;;;0.00;0.00;;;;;-144.08;100.00;62200.94;5062949;28;45486;-57
2021/07/12 02:50:07;;;;;;;;;0.00;0.00;;;;;-144.08;100.00;62200.94;5063073;28;47262;-55
2021/07/12 02:52:40;;;;;;;;;0.00;0.00;;;;;-144.08;100.00;62200.94;5081426;28;45256;-57
2021/07/12 02:55:06;;;;;;;;;0.00;0.00;;;;;-144.08;100.00;62200.94;5081127;28;45272;-56
2021/07/12 02:57:32;;;;;;;;;0.00;0.00;;;;;-144.08;100.00;62200.94;5081751;28;45479;-56
2021/07/12 02:59:57;;;;;;;;;0.00;0.00;;;;;-144.08;100.00;62200.94;5080891;28;45664;-56
2021/07/12 03:02:22;;;;;;;;;0.00;0.00;;;;;-144.08;100.00;62200.94;5081120;28;45738;-57
2021/07/12 03:04:48;;;;;;;;;0.00;0.00;;;;;-144.08;100.00;62200.94;5081269;28;45246;-56
2021/07/12 03:07:33;;;;;;;;;0.00;0.00;;;;;-144.08;100.00;62200.94;5083486;28;45354;-57
2021/07/12 03:10:07;;;;;;;;;0.00;0.00;;;;;-144.08;100.00;62200.94;5084836;28;45931;-56
2021/07/12 03:12:47;;;;;;;;;0.00;0.00;;;;;-144.08;100.00;62200.94;5084807;28;45326;-58
2021/07/12 03:15:14;;;;;;;;;0.00;0.00;;;;;-144.08;100.00;62200.94;5084074;28;45302;-56
2021/07/12 03:17:48;;;;;;;;;0.00;0.00;;;;;-144.08;100.00;62200.94;5084840;28;45512;-57
2021/07/12 03:20:15;;;;;;;;;0.00;0.00;;;;;-144.08;100.00;62200.94;5084786;28;46045;-56
2021/07/12 03:22:41;;;;;;;;;0.00;0.00;;;;;-144.08;100.00;62200.94;5084626;28;45260;-57
2021/07/12 03:25:10;;;;;;;;;0.00;0.00;;;;;-144.08;100.00;62200.94;5084710;28;45291;-56
2021/07/12 03:27:36;;;;;;;;;0.00;0.00;;;;;-144.08;100.00;62200.94;5084750;28;45474;-57
2021/07/12 03:30:04;;;;;;;;;0.00;0.00;;;;;-144.08;100.00;62200.94;5084318;28;45518;-57
2021/07/12 03:32:31;;;;;;;;;0.00;0.00;;;;;-144.08;100.00;62200.94;5084624;28;45327;-57
2021/07/12 03:34:58;;;;;;;;;0.00;0.00;;;;;-144.08;100.00;62200.94;5084787;28;45410;-56
2021/07/12 03:37:25;;;;;;;;;0.00;0.00;;;;;-144.08;100.00;62200.94;5084653;28;45298;-56
2021/07/12 03:39:51;;;;;;;;;0.00;0.00;;;;;-144.08;100.00;62200.94;5084195;28;46462;-56
2021/07/12 03:42:19;;;;;;;;;0.00;0.00;;;;;-144.08;100.00;62200.94;5084448;28;45314;-56
2021/07/12 03:44:44;;;;;;;;;0.00;0.00;;;;;-144.08;100.00;62200.94;5084530;28;45261;-57
2021/07/12 03:47:33;;;;;;;;;0.00;0.00;;;;;-144.08;100.00;62200.94;5084259;28;45401;-57
2021/07/12 03:50:16;;;;;;;;;0.00;0.00;;;;;-144.08;100.00;62200.94;5084488;28;46575;-57
2021/07/12 03:52:45;;;;;;;;;0.00;0.00;;;;;-144.08;100.00;62200.94;5084270;28;45231;-57
2021/07/12 03:55:12;;;;;;;;;0.00;0.00;;;;;-144.08;100.00;62200.94;5084040;28;45256;-56
2021/07/12 03:57:38;;;;;;;;;0.00;0.00;;;;;-144.08;100.00;62200.94;5083296;28;45179;-56
2021/07/12 04:00:06;;;;;;;;;0.00;0.00;;;;;-144.08;100.00;62200.94;5083758;28;46630;-60
2021/07/12 04:02:32;;;;;;;;;0.00;0.00;;;;;-144.08;100.00;62200.94;5084220;28;45266;-56
2021/07/12 04:04:57;;;;;;;;;0.00;0.00;;;;;-144.08;100.00;62200.94;5084255;28;45341;-58
2021/07/12 04:07:22;;;;;;;;;0.00;0.00;;;;;-144.08;100.00;62200.94;5084522;28;45325;-58
2021/07/12 04:09:48;;;;;;;;;0.00;0.00;;;;;-144.08;100.00;62200.94;5084035;28;46168;-56
2021/07/12 04:12:22;;;;;;;;;0.00;0.00;;;;;-144.08;100.00;62200.94;5083789;28;45266;-57
2021/07/12 04:14:47;;;;;;;;;0.00;0.00;;;;;-144.08;100.00;62200.94;5083575;28;45334;-57
2021/07/12 04:17:12;;;;;;;;;0.00;0.00;;;;;-144.08;100.00;62200.94;5083665;28;45271;-61
2021/07/12 04:19:37;;;;;;;;;0.00;0.00;;;;;-144.08;100.00;62200.94;5082211;28;54574;-58
2021/07/12 04:22:03;;;;;;;;;0.00;0.00;;;;;-144.08;100.00;62200.94;5083821;28;45416;-57
2021/07/12 04:24:28;;;;;;;;;0.00;0.00;;;;;-144.08;100.00;62200.94;5083726;28;45263;-57
2021/07/12 04:26:54;;;;;;;;;0.00;0.00;;;;;-144.08;100.00;62200.94;5083973;28;45372;-58
2021/07/12 04:29:19;;;;;;;;;0.00;0.00;;;;;-144.08;100.00;62200.94;5064905;28;45326;-57
2021/07/12 04:31:44;;;;;;;;;0.00;0.00;;;;;-144.08;100.00;62200.94;5083472;28;49973;-60
2021/07/12 04:34:10;;;;;;;;;0.00;0.00;;;;;-144.08;100.00;62200.94;5083387;28;45301;-56
2021/07/12 04:36:35;;;;;;;;;0.00;0.00;;;;;-144.08;100.00;62200.94;5083877;28;45295;-55
2021/07/12 04:39:01;;;;;;;;;0.00;0.00;;;;;-144.08;100.00;62200.94;5083308;28;46489;-56
2021/07/12 04:41:26;;;;;;;;;0.00;0.00;;;;;-144.08;100.00;62200.94;5083460;28;45349;-56
2021/07/12 04:43:51;;;;;;;;;0.00;0.00;;;;;-144.08;100.00;62200.94;5083064;28;46062;-56
2021/07/12 04:46:17;;;;;;;;;0.00;0.00;;;;;-144.08;100.00;62200.94;5083050;28;45309;-57
2021/07/12 04:48:42;;;;;;;;;0.00;0.00;;;;;-144.08;100.00;62200.94;5082977;28;51491;-57
2021/07/12 04:51:08;;;;;;;;;0.00;0.00;;;;;-144.08;100.00;62200.94;5083207;28;45244;-58
2021/07/12 04:53:33;;;;;;;;;0.00;0.00;;;;;-144.08;100.00;62200.94;5082959;28;45925;-58
2021/07/12 04:55:58;;;;;;;;;0.00;0.00;;;;;-144.08;100.00;62200.94;5083517;28;45409;-58
2021/07/12 04:58:24;;;;;;;;;0.00;0.00;;;;;-144.08;100.00;62200.94;5082274;28;52822;-58
2021/07/12 05:00:49;;;;;;;;;0.00;0.00;;;;;-144.08;100.00;62200.94;5082563;28;45298;-58
2021/07/12 05:03:20;;;;;;;;;0.00;0.00;;;;;-144.08;100.00;62200.94;5082927;28;45303;-58
2021/07/12 05:05:45;;;;;;;;;0.00;0.00;;;;;-144.08;100.00;62200.94;5083461;28;45418;-58
2021/07/12 05:08:10;;;;;;;;;0.00;0.00;;;;;-144.08;100.00;62200.94;5082931;28;46253;-58
2021/07/12 05:10:39;;;;;;;;;0.00;0.00;;;;;-144.08;100.00;62200.94;5082567;28;49703;-58
2021/07/12 05:13:05;;;;;;;;;0.00;0.00;;;;;-144.08;100.00;62200.94;5082682;28;45278;-57
2021/07/12 05:15:30;;;;;;;;;0.00;0.00;;;;;-144.08;100.00;62200.94;5082528;28;45242;-58
2021/07/12 05:17:56;;;;;;;;;0.00;0.00;;;;;-144.08;100.00;62200.94;5082269;28;47298;-57
2021/07/12 05:20:21;;;;;;;;;0.00;0.00;;;;;-144.08;100.00;62200.94;5082654;28;45354;-57
2021/07/12 05:22:46;;;;;;;;;0.00;0.00;;;;;-144.08;100.00;62200.94;5064417;28;45219;-58
2021/07/12 05:25:12;;;;;;;;;0.00;0.00;;;;;-144.08;100.00;62200.94;5083062;28;45496;-54
2021/07/12 05:27:38;;;;;;;;;0.00;0.00;;;;;-144.08;100.00;62200.94;5082322;28;45990;-57
2021/07/12 05:30:06;;;;;;;;;0.00;0.00;;;;;-144.08;100.00;62200.94;5081676;28;45337;-58
2021/07/12 05:32:32;;;;;;;;;0.00;0.00;;;;;-144.08;100.00;62200.94;5082250;28;45343;-56
2021/07/12 05:34:57;;;;;;;;;0.00;0.00;;;;;-144.08;100.00;62200.94;5083055;28;45257;-58
2021/07/12 05:37:22;;;;;;;;;0.00;0.00;;;;;-144.08;100.00;62200.94;5082330;28;45290;-58
2021/07/12 05:39:48;;;;;;;;;0.00;0.00;;;;;-144.08;100.00;62200.94;5082280;28;45257;-57
2021/07/12 05:42:13;;;;;;;;;0.00;0.00;;;;;-144.08;100.00;62200.94;5081429;28;45886;-58
2021/07/12 05:44:38;;;;;;;;;0.00;0.00;;;;;-144.08;100.00;62200.94;5082205;28;45468;-59
2021/07/12 05:47:05;;;;;;;;;0.00;0.00;;;;;-144.08;100.00;62200.94;5081882;28;46106;-58
2021/07/12 05:49:30;;;;;;;;;0.00;0.00;;;;;-144.08;100.00;62200.94;5082131;28;45230;-57
2021/07/12 05:51:55;;;;;;;;;0.00;0.00;;;;;-144.08;100.00;62200.94;5081942;28;45305;-57
2021/07/12 05:54:21;;;;;;;;;0.00;0.00;;;;;-144.08;100.00;62200.94;5081903;28;45436;-56
2021/07/12 05:56:46;;;;;;;;;0.00;0.00;;;;;-144.08;100.00;62200.94;5081980;28;45568;-57
2021/07/12 05:59:11;;;;;;;;;0.00;0.00;;;;;-144.08;100.00;62200.94;5081795;28;47031;-56
2021/07/12 06:01:37;;;;;;;;;0.00;0.00;;;;;-144.08;100.00;62200.94;5081807;28;45222;-57
2021/07/12 06:04:02;;;;;;;;;0.00;0.00;;;;;-144.08;100.00;62200.94;5082136;28;45532;-57
2021/07/12 06:06:27;;;;;;;;;0.00;0.00;;;;;-144.08;100.00;62200.94;5081541;28;46265;-57
2021/07/12 06:08:53;;;;;;;;;0.00;0.00;;;;;-144.08;100.00;62200.94;5082078;28;45288;-58
2021/07/12 06:11:18;;;;;;;;;0.00;0.00;;;;;-144.08;100.00;62200.94;5081806;28;45401;-57
2021/07/12 06:13:43;;;;;;;;;0.00;0.00;;;;;-144.08;100.00;62200.94;5081994;28;45255;-58
2021/07/12 06:16:10;;;;;;;;;0.00;0.00;;;;;-144.08;100.00;62200.94;5081392;28;45521;-57
2021/07/12 06:18:36;;;;;;;;;0.00;0.00;;;;;-144.08;100.00;62200.94;5081801;28;45325;-57
2021/07/12 06:21:01;;;;;;;;;0.00;0.00;;;;;-144.08;100.00;62200.94;5081661;28;45299;-57
2021/07/12 06:23:26;;;;;;;;;0.00;0.00;;;;;-144.08;100.00;62200.94;5081919;28;45358;-57
2021/07/12 06:25:52;;;;;;;;;0.00;0.00;;;;;-144.08;100.00;62200.94;5081034;28;45479;-57
2021/07/12 06:28:17;;;;;;;;;0.00;0.00;;;;;-144.08;100.00;62200.94;5081157;28;46886;-58
2021/07/12 06:30:42;;;;;;;;;0.00;0.00;;;;;-144.08;100.00;62200.94;5081208;28;45348;-57
2021/07/12 06:33:08;;;;;;;;;1.00;0.00;;;;;-144.08;100.00;62200.94;5081693;28;45161;-57
2021/07/12 06:35:34;;;;;;;;;0.00;0.00;;;;;-144.08;100.00;62200.94;5080859;28;45518;-57
2021/07/12 06:37:59;;;;;;;;;0.00;0.00;;;;;-144.08;100.00;62200.94;5081568;28;45234;-57
2021/07/12 06:40:24;;;;;;;;;0.00;0.00;;;;;-144.08;100.00;62200.94;5081427;28;45256;-57
2021/07/12 06:42:50;;;;;;;;;0.00;0.00;;;;;-144.08;100.00;62200.94;5084440;28;45214;-57
2021/07/12 06:45:15;;;;;;;;;0.00;0.00;;;;;-144.08;100.00;62200.94;5084422;28;46195;-58
2021/07/12 06:47:41;;;;;;;;;0.00;0.00;;;;;-144.08;100.00;62200.94;5084940;28;45267;-58
2021/07/12 06:50:07;;;;;;;;;0.00;0.00;;;;;-144.08;100.00;62200.94;5084841;28;45238;-57
2021/07/12 06:52:32;;;;;;;;;0.00;0.00;;;;;-144.08;100.00;62200.94;5085026;28;45321;-56
2021/07/12 06:54:58;;;;;;;;;0.00;0.00;;;;;-144.08;100.00;62200.94;5084075;28;45579;-58
2021/07/12 06:57:23;;;;;;;;;0.00;0.00;;;;;-144.08;100.00;62200.94;5085456;28;45314;-60
2021/07/12 06:59:50;;;;;;;;;0.00;0.00;;;;;-144.08;100.00;62200.94;5083343;28;45469;-59
2021/07/12 07:02:16;;;;;;;;;0.00;0.00;;;;;-144.08;100.00;62200.94;5076180;28;45525;-59
2021/07/12 07:04:41;;;;;;;;;0.00;0.00;;;;;-144.08;100.00;62200.94;5083803;28;46446;-58
2021/07/12 07:07:07;;;;;;;;;4.00;4.00;;;;;-144.08;100.00;62200.94;5082935;28;45426;-58
2021/07/12 07:09:33;;;;;;;;;0.00;0.00;;;;;-144.08;100.00;62200.94;5080690;28;45245;-58
2021/07/12 07:11:59;;;;;;;;;0.00;0.00;;;;;-144.08;100.00;62200.94;5084967;28;45181;-58
2021/07/12 07:14:24;;;;;;;;;0.00;0.00;;;;;-144.08;100.00;62200.94;5080520;28;45466;-59
2021/07/12 07:16:50;;;;;;;;;0.00;0.00;;;;;-144.08;100.00;62200.94;5080045;28;45461;-58
2021/07/12 07:19:15;;;;;;;;;0.00;0.00;;;;;-144.08;100.00;62200.94;5082981;28;45158;-58
2021/07/12 07:21:41;;;;;;;;;0.00;0.00;;;;;-144.08;100.00;62200.94;5080923;28;45335;-58
2021/07/12 07:24:06;;;;;;;;;0.00;0.00;;;;;-144.08;100.00;62200.94;5072183;28;46282;-58
2021/07/12 07:26:32;;;;;;;;;0.00;0.00;;;;;-144.08;100.00;62200.94;5075835;28;45413;-58
2021/07/12 07:28:57;;;;;;;;;0.00;0.00;;;;;-144.08;100.00;62200.94;5083393;28;45407;-58
2021/07/12 07:31:24;;;;;;;;;0.00;0.00;;;;;-144.08;100.00;62200.94;5080511;28;45515;-58
2021/07/12 07:33:49;;;;;;;;;0.00;0.00;;;;;-144.08;100.00;62200.94;5082211;28;46437;-58
2021/07/12 07:36:16;;;;;;;;;0.00;0.00;;;;;-144.08;100.00;62200.94;5074787;28;45310;-58
2021/07/12 07:38:42;;;;;;;;;0.00;0.00;;;;;-144.08;100.00;62200.94;5084588;28;45454;-59
2021/07/12 07:41:07;;;;;;;;;1.00;1.00;;;;;-144.08;100.00;62200.94;5084291;27;45263;-60
2021/07/12 07:43:32;;;;;;;;;0.00;0.00;;;;;-144.08;100.00;62200.94;5083423;28;45258;-59
2021/07/12 07:45:58;;;;;;;;;0.00;0.00;;;;;-144.08;100.00;62200.94;5084114;28;45172;-58
2021/07/12 07:48:23;;;;;;;;;0.00;0.00;;;;;-144.08;100.00;62200.94;5084116;28;45409;-59
2021/07/12 07:50:49;;;;;;;;;0.00;0.00;;;;;-144.08;100.00;62200.94;5084138;28;45548;-59
2021/07/12 07:53:15;;;;;;;;;0.00;0.00;;;;;-144.08;100.00;62200.94;5083695;28;45342;-59
2021/07/12 07:55:40;;;;;;;;;0.00;0.00;;;;;-144.08;100.00;62200.94;5083463;28;45172;-59
2021/07/12 07:58:05;;;;;;;;;0.00;0.00;;;;;-144.08;100.00;62200.94;5083464;28;45227;-60
2021/07/12 08:00:31;;;;;;;;;0.00;0.00;;;;;-144.08;100.00;62200.94;5083279;28;45218;-59
2021/07/12 08:02:56;;;;;;;;;0.00;0.00;;;;;-144.08;100.00;62200.94;5083315;28;45401;-58
2021/07/12 08:05:22;;;;;;;;;0.00;0.00;;;;;-144.08;100.00;62200.94;5083319;28;45243;-59
2021/07/12 08:07:48;;;;;;;;;0.00;0.00;;;;;-144.08;100.00;62200.94;5083909;28;45297;-58
2021/07/12 08:10:17;;;;;;;;;0.00;0.00;;;;;-144.08;100.00;62200.94;5084397;28;45463;-59
2021/07/12 08:12:43;;;;;;;;;0.00;0.00;;;;;-144.08;100.00;62200.94;5083547;28;45325;-59
2021/07/12 08:15:12;;;;;;;;;0.00;0.00;;;;;-144.08;100.00;62200.94;5083409;28;45671;-59
2021/07/12 08:17:38;;;;;;;;;0.00;0.00;;;;;-144.08;100.00;62200.94;5065071;28;45390;-58
2021/07/12 08:20:05;;;;;;;;;0.00;0.00;;;;;-144.08;100.00;62200.94;5083853;28;45325;-59
2021/07/12 08:22:30;;;;;;;;;0.00;0.00;;;;;-144.08;100.00;62200.94;5088755;27;46572;-58
2021/07/12 08:24:56;;;;;;;;;0.00;0.00;;;;;-144.08;100.00;62200.94;5084660;27;45422;-58
2021/07/12 08:27:21;;;;;;;;;0.00;0.00;;;;;-144.08;100.00;62200.94;5083737;27;45334;-59
2021/07/12 08:29:46;;;;;;;;;14.50;14.50;;;;;-144.08;100.00;62200.94;5084463;27;45350;-58
2021/07/12 08:32:12;;;;;;;;;0.00;0.00;;;;;-144.08;100.00;62200.94;5071863;27;45646;-58
2021/07/12 08:34:42;;;;;;;;;0.00;0.00;;;;;-144.08;100.00;62200.94;5081034;28;45246;-59
2021/07/12 08:37:08;;;;;;;;;0.00;0.00;;;;;-144.08;100.00;62200.94;5082010;27;45468;-59
2021/07/12 08:39:34;;;;;;;;;0.00;0.00;;;;;-144.08;100.00;62200.94;5083970;27;45410;-58
2021/07/12 08:41:59;;;;;;;;;0.00;0.00;;;;;-144.08;100.00;62200.94;5081923;28;46284;-59
2021/07/12 08:44:26;;;;;;;;;0.00;0.00;;;;;-144.08;100.00;62200.94;5082301;28;45472;-58
2021/07/12 08:46:53;;;;;;;;;3.50;0.00;;;;;-144.08;100.00;62200.94;5081464;28;45515;-59
2021/07/12 08:49:18;;;;;;;;;0.00;0.00;;;;;-144.08;100.00;62200.94;5064658;28;45362;-59
2021/07/12 08:51:43;;;;;;;;;0.00;0.00;;;;;-144.08;100.00;62200.94;5082275;28;45354;-58
2021/07/12 08:54:09;;;;;;;;;0.00;0.00;;;;;-144.08;100.00;62200.94;5082143;28;45376;-58
2021/07/12 08:56:34;;;;;;;;;0.00;0.00;;;;;-144.08;100.00;62200.94;5085331;27;45448;-58
2021/07/12 08:59:30;;;;;;;;;0.00;0.00;;;;;-144.08;100.00;62200.94;5082103;28;45207;-60
2021/07/12 09:02:06;;;;;;;;;0.00;0.00;;;;;-144.08;100.00;62200.94;5081415;28;45420;-59
2021/07/12 09:04:33;;;;;;;;;0.00;0.00;;;;;-144.08;100.00;62200.94;5081273;28;45354;-59
2021/07/12 09:07:07;;;;;;;;;0.00;0.00;;;;;-144.08;100.00;62200.94;5082227;28;45443;-58
2021/07/12 09:09:33;;;;;;;;;0.00;0.00;;;;;-144.08;100.00;62200.94;5077266;28;45521;-58
2021/07/12 09:12:16;;;;;;;;;0.00;0.00;;;;;-144.08;100.00;62200.94;5082025;28;45455;-58
2021/07/12 09:15:01;;;;;;;;;0.00;0.00;;;;;-144.08;100.00;62200.94;5079940;28;45365;-58
2021/07/12 09:17:32;;;;;;;;;0.00;0.00;;;;;-144.08;100.00;62200.94;5082040;28;45372;-58
2021/07/12 09:19:58;;;;;;;;;0.00;0.00;;;;;-144.08;100.00;62200.94;5082039;28;45405;-58
2021/07/12 09:22:34;;;;;;;;;0.00;0.00;;;;;-144.08;100.00;62200.94;5081339;28;45445;-59
2021/07/12 09:25:02;;;;;;;;;0.00;0.00;;;;;-144.08;100.00;62200.94;5080439;28;45458;-59
2021/07/12 09:27:30;;;;;;;;;0.00;0.00;;;;;-144.08;100.00;62200.94;5080111;28;45581;-59
2021/07/12 09:30:08;;;;;;;;;0.00;0.00;;;;;-144.08;100.00;62200.94;5080443;28;45535;-59
2021/07/12 09:32:35;;;;;;;;;0.00;0.00;;;;;-144.08;100.00;62200.94;5080344;28;46606;-59
2021/07/12 09:35:22;;;;;;;;;0.00;0.00;;;;;-144.08;100.00;62200.94;5081164;28;45520;-60
2021/07/12 09:37:56;;;;;;;;;0.00;0.00;;;;;-144.08;100.00;62200.94;5077918;28;45604;-61
2021/07/12 09:40:22;;;;;;;;;0.00;0.00;;;;;-144.08;100.00;62200.94;5080925;28;45655;-60
2021/07/12 09:42:50;;;;;;;;;0.00;0.00;;;;;-144.08;100.00;62200.94;5081010;28;46327;-59
2021/07/12 09:45:21;;;;;;;;;0.00;0.00;;;;;-144.08;100.00;62200.94;5080662;28;45484;-59
2021/07/12 09:47:49;;;;;;;;;0.00;0.00;;;;;-144.08;100.00;62200.94;5081411;28;45389;-59
2021/07/12 09:50:23;;;;;;;;;0.00;0.00;;;;;-144.08;100.00;62200.94;5081383;28;45355;-60
2021/07/12 09:52:49;;;;;;;;;0.00;0.00;;;;;-144.08;100.00;62200.94;5080891;28;47484;-59
2021/07/12 09:55:26;;;;;;;;;0.00;0.00;;;;;-144.08;100.00;62200.94;5078820;28;45390;-59
2021/07/12 09:58:07;;;;;;;;;0.00;0.00;;;;;-144.08;100.00;62200.94;5080884;28;45342;-59
2021/07/12 10:00:34;;;;;;;;;1.00;0.00;;;;;-144.08;100.00;62200.94;5080553;28;45597;-59
2021/07/12 10:03:01;;;;;;;;;0.00;0.00;;;;;-144.08;100.00;62200.94;5080108;28;46149;-60
2021/07/12 10:05:26;;;;;;;;;0.00;0.00;;;;;-144.08;100.00;62200.94;5079881;28;45963;-61
2021/07/12 10:07:52;;;;;;;;;0.00;0.00;;;;;-144.08;100.00;62200.94;5080115;28;45424;-60
2021/07/12 10:10:17;;;;;;;;;0.00;0.00;;;;;-144.08;100.00;62200.94;5080592;28;45639;-59
2021/07/12 10:12:44;;;;;;;;;0.00;0.00;;;;;-144.08;100.00;62200.94;5080027;28;46124;-59
2021/07/12 10:15:13;;;;;;;;;0.00;0.00;;;;;-144.08;100.00;62200.94;5079382;28;45461;-59
2021/07/12 10:17:46;;;;;;;;;0.00;0.00;;;;;-144.08;100.00;62200.94;5080325;28;45344;-59
2021/07/12 10:20:14;;;;;;;;;0.00;0.00;;;;;-144.08;100.00;62200.94;5078311;28;45785;-59
2021/07/12 10:22:42;;;;;;;;;0.00;0.00;;;;;-144.08;100.00;62200.94;5078081;28;45497;-59
2021/07/12 10:25:16;;;;;;;;;0.00;0.00;;;;;-144.08;100.00;62200.94;5078677;28;45354;-59
2021/07/12 10:27:50;;;;;;;;;0.00;0.00;;;;;-144.08;100.00;62200.94;5073822;28;45521;-59
2021/07/12 10:30:28;;;;;;;;;0.00;0.00;;;;;-144.08;100.00;62200.94;5075354;28;45412;-60
2021/07/12 10:32:59;;;;;;;;;0.00;0.00;;;;;-144.08;100.00;62200.94;5069883;28;46363;-58
2021/07/12 10:35:43;;;;;;;;;0.00;0.00;;;;;-144.08;100.00;62200.94;5075906;28;45438;-60
2021/07/12 10:38:11;;;;;;;;;0.00;0.00;;;;;-144.08;100.00;62200.94;5077913;28;45365;-60
2021/07/12 10:40:59;;;;;;;;;0.00;0.00;;;;;-144.08;100.00;62200.94;5077554;28;45631;-61
2021/07/12 10:43:54;;;;;;;;;0.00;0.00;;;;;-144.08;100.00;62200.94;5073583;28;47286;-61
2021/07/12 10:46:30;;;;;;;;;0.00;0.00;;;;;-144.08;100.00;62200.94;5079797;28;45457;-59
2021/07/12 10:49:01;;;;;;;;;0.00;0.00;;;;;-144.08;100.00;62200.94;5079894;28;45483;-61
2021/07/12 10:51:30;;;;;;;;;0.00;0.00;;;;;-144.08;100.00;62200.94;5079695;28;45475;-60
2021/07/12 10:54:14;;;;;;;;;0.00;0.00;;;;;-144.08;100.00;62200.94;5079271;28;46340;-61
2021/07/12 10:57:02;;;;;;;;;1.00;1.00;;;;;-144.08;100.00;62200.94;5060095;28;45331;-61
2021/07/12 10:59:27;;;;;;;;;0.00;0.00;;;;;-144.08;100.00;62200.94;5077555;28;45436;-59
2021/07/12 11:01:53;;;;;;;;;0.00;0.00;;;;;-144.08;100.00;62200.94;5079248;28;45230;-63
2021/07/12 11:04:35;;;;;;;;;0.00;0.00;;;;;-144.08;100.00;62200.94;5079530;28;46138;-60
2021/07/12 11:07:07;;;;;;;;;0.00;0.00;;;;;-144.08;100.00;62200.94;5077318;28;45269;-59
2021/07/12 11:09:47;;;;;;;;;0.00;0.00;;;;;-144.08;100.00;62200.94;5079702;28;45652;-60
2021/07/12 11:12:33;;;;;;;;;0.00;0.00;;;;;-144.08;100.00;62200.94;5079617;28;45498;-59
2021/07/12 11:15:15;;;;;;;;;0.00;0.00;;;;;-144.08;100.00;62200.94;5078130;28;45309;-59
2021/07/12 11:17:56;;;;;;;;;0.00;0.00;;;;;-144.08;100.00;62200.94;5077080;28;45295;-58